Time;durP1;ratioP1;P1;durP2;ratioP2;P2;SDS_P1;SDS_P2;PMS_P1;PMS_P2;Temp;Humidity;BMP_temperature;BMP_pressure;BME280_temperature;BME280_humidity;BME280_pressure;Samples;Min_cycle;Max_cycle;Signal;HPM_P1;HPM_P2
2022/02/08 00:00:50;;;;;;;40.38;20.48;;;;;;;3.34;100.00;98760.56;4910668;29;20137;-52
2022/02/08 00:03:34;;;;;;;36.28;20.13;;;;;;;3.08;100.00;98749.41;4916178;29;20107;-52
2022/02/08 00:06:41;;;;;;;38.35;20.70;;;;;;;3.31;100.00;98756.22;4907973;29;20063;-54
2022/02/08 00:09:26;;;;;;;38.50;20.73;;;;;;;3.55;100.00;98760.38;4944762;29;20058;-55
2022/02/08 00:12:12;;;;;;;37.78;19.73;;;;;;;3.42;100.00;98758.75;4928517;29;20518;-53
2022/02/08 00:14:58;;;;;;;34.67;18.85;;;;;;;3.36;100.00;98750.97;4951209;29;20058;-55
2022/02/08 00:17:42;;;;;;;35.58;18.67;;;;;;;3.53;100.00;98762.16;4935647;28;20605;-55
2022/02/08 00:20:27;;;;;;;33.47;18.55;;;;;;;3.38;100.00;98767.53;4948166;29;20074;-56
2022/02/08 00:23:11;;;;;;;32.40;17.77;;;;;;;3.41;100.00;98770.97;4946445;29;20420;-58
2022/02/08 00:25:56;;;;;;;29.83;16.75;;;;;;;3.31;100.00;98766.69;4929987;29;20110;-58
2022/02/08 00:28:40;;;;;;;32.47;16.92;;;;;;;3.29;100.00;98764.97;4937410;29;20093;-57
2022/02/08 00:31:25;;;;;;;28.50;16.30;;;;;;;3.38;100.00;98764.91;4949248;28;20137;-57
2022/02/08 00:34:10;;;;;;;30.17;16.27;;;;;;;3.19;100.00;98735.38;4967350;28;20082;-53
2022/02/08 00:36:54;;;;;;;28.50;16.30;;;;;;;3.16;100.00;98743.25;4959588;28;20050;-56
2022/02/08 00:39:38;;;;;;;29.17;16.23;;;;;;;3.32;100.00;98772.81;4961391;28;20308;-56
2022/02/08 00:42:24;;;;;;;27.13;14.93;;;;;;;3.24;100.00;98774.63;4956096;28;20129;-55
2022/02/08 00:48:17;;;;;;;25.08;14.60;;;;;;;3.03;100.00;98753.81;4965036;28;20192;-55
2022/02/08 00:51:03;;;;;;;25.67;14.45;;;;;;;3.24;100.00;98785.97;4943679;29;20170;-55
2022/02/08 00:53:48;;;;;;;27.13;14.63;;;;;;;3.32;100.00;98759.72;4933941;29;20061;-57
2022/02/08 00:56:33;;;;;;;23.85;14.95;;;;;;;3.26;100.00;98784.22;4931945;29;20138;-57
2022/02/08 00:59:18;;;;;;;26.48;14.50;;;;;;;3.09;100.00;98779.97;4930106;29;20074;-59
2022/02/08 01:02:05;;;;;;;24.73;14.30;;;;;;;3.05;100.00;98797.41;4943167;28;20472;-56
2022/02/08 01:04:55;;;;;;;21.60;13.65;;;;;;;2.81;100.00;98747.81;4948532;28;20122;-58
2022/02/08 01:07:41;;;;;;;24.48;14.45;;;;;;;3.01;100.00;98794.84;4947339;29;20066;-55
2022/02/08 01:10:30;;;;;;;25.02;13.93;;;;;;;2.81;100.00;98797.56;4947789;28;20533;-55
2022/02/08 01:13:15;;;;;;;24.88;13.95;;;;;;;2.48;100.00;98763.72;4936366;29;20062;-58
2022/02/08 01:15:59;;;;;;;27.00;13.90;;;;;;;2.60;100.00;98808.13;4950373;29;20058;-55
2022/02/08 01:18:45;;;;;;;25.38;13.85;;;;;;;2.53;100.00;98801.19;4949106;28;20057;-58
2022/02/08 01:21:31;;;;;;;28.38;14.77;;;;;;;2.51;100.00;98786.38;4914771;29;20419;-61
2022/02/08 01:24:16;;;;;;;25.05;14.23;;;;;;;2.41;100.00;98796.00;4904483;29;20066;-58
2022/02/08 01:27:06;;;;;;;26.13;14.35;;;;;;;2.63;100.00;98813.38;4929405;29;20187;-57
2022/02/08 01:29:56;;;;;;;24.38;14.07;;;;;;;2.61;100.00;98820.31;4889323;29;20090;-56
2022/02/08 01:33:12;;;;;;;25.27;14.00;;;;;;;2.58;100.00;98812.53;4929717;28;20094;-55
2022/02/08 01:36:19;;;;;;;26.92;14.68;;;;;;;2.63;100.00;98807.25;4938552;29;20046;-55
2022/02/08 01:39:11;;;;;;;24.77;13.57;;;;;;;2.57;100.00;98817.75;4942721;29;20073;-57
2022/02/08 01:48:06;;;;;;;;;;;;;;;2.66;100.00;98834.28;4919800;28;20129;-57
2022/02/08 01:50:52;;;;;;;28.40;15.10;;;;;;;2.69;100.00;98829.03;4928554;29;19972;-58
2022/02/08 01:53:37;;;;;;;30.55;15.07;;;;;;;2.68;100.00;98834.25;4932786;29;20988;-56
2022/02/08 01:56:21;;;;;;;25.50;14.55;;;;;;;2.62;100.00;98839.53;4934021;29;20488;-58
2022/02/08 01:59:06;;;;;;;27.65;14.50;;;;;;;2.65;100.00;98834.28;4932917;29;20118;-58
2022/02/08 02:01:56;;;;;;;31.08;15.85;;;;;;;2.52;100.00;98841.31;4932729;28;20478;-57
2022/02/08 02:04:41;;;;;;;31.23;15.27;;;;;;;2.55;100.00;98833.44;4934304;29;20045;-55
2022/02/08 02:07:26;;;;;;;29.38;15.18;;;;;;;2.48;100.00;98823.00;4904772;29;20111;-60
2022/02/08 02:10:11;;;;;;;29.58;15.93;;;;;;;2.61;100.00;98827.34;4928467;29;20571;-55
2022/02/08 02:12:59;;;;;;;34.03;16.73;;;;;;;2.73;100.00;98835.13;4932810;29;20062;-56
2022/02/08 02:15:50;;;;;;;30.20;15.25;;;;;;;2.68;100.00;98832.53;4922108;29;20543;-56
2022/02/08 02:18:34;;;;;;;32.63;16.90;;;;;;;2.47;100.00;98809.06;4947245;28;20046;-55
2022/02/08 02:21:19;;;;;;;29.75;15.40;;;;;;;2.64;100.00;98846.50;4932900;29;20182;-59
2022/02/08 02:24:05;;;;;;;;;;;;;;;2.72;100.00;98849.06;4924735;29;20201;-58
2022/02/08 02:26:51;;;;;;;27.55;15.65;;;;;;;2.55;100.00;98849.16;4940094;29;19925;-55
2022/02/08 02:29:37;;;;;;;28.88;15.73;;;;;;;2.61;100.00;98845.66;4922086;28;20488;-56
2022/02/08 02:32:21;;;;;;;30.42;16.00;;;;;;;2.77;100.00;98852.56;4918519;29;20134;-59
2022/02/08 02:35:08;;;;;;;28.42;14.70;;;;;;;2.73;100.00;98840.38;4946208;28;20577;-55
2022/02/08 02:37:57;;;;;;;30.80;16.10;;;;;;;2.75;100.00;98867.38;4921530;29;20050;-57
2022/02/08 02:40:45;;;;;;;30.73;17.00;;;;;;;2.55;100.00;98814.25;4929449;29;20050;-56
2022/02/08 02:43:33;;;;;;;33.40;16.52;;;;;;;2.78;100.00;98870.88;4923570;29;20087;-55
2022/02/08 02:46:20;;;;;;;30.05;16.33;;;;;;;2.70;100.00;98866.53;4906240;29;20110;-58
2022/02/08 02:49:06;;;;;;;34.75;16.58;;;;;;;2.39;100.00;98825.66;4899769;29;20058;-59
2022/02/08 02:51:51;;;;;;;34.33;16.50;;;;;;;2.59;100.00;98839.53;4931000;29;20562;-57
2022/02/08 02:54:36;;;;;;;32.60;15.20;;;;;;;2.62;100.00;98865.69;4938025;28;20188;-56
2022/02/08 02:57:24;;;;;;;28.17;14.15;;;;;;;2.75;100.00;98873.50;4926639;29;20523;-57
2022/02/08 03:00:12;;;;;;;33.35;15.38;;;;;;;2.57;100.00;98839.53;4922611;29;20518;-58
2022/02/08 03:03:15;;;;;;;36.05;15.18;;;;;;;2.63;100.00;98868.31;4921576;28;20423;-60
2022/02/08 03:17:27;;;;;;;34.65;14.82;;;;;;;2.73;100.00;98879.63;4930048;29;20423;-57
2022/02/08 03:21:09;;;;;;;32.08;14.80;;;;;;;2.55;100.00;98888.38;4940198;28;20065;-57
2022/02/08 03:23:55;;;;;;;37.92;16.83;;;;;;;2.66;100.00;98901.44;4946693;29;20134;-55
2022/02/08 03:26:39;;;;;;;35.20;16.25;;;;;;;2.86;100.00;98900.50;4959611;28;20086;-59
2022/02/08 03:29:23;;;;;;;42.17;16.98;;;;;;;3.00;100.00;98898.69;4965256;28;20483;-59
2022/02/08 03:32:09;;;;;;;34.50;15.48;;;;;;;3.21;100.00;98900.34;4941985;28;20094;-59
2022/02/08 03:34:55;;;;;;;36.22;15.70;;;;;;;3.03;100.00;98869.00;4935423;28;20073;-61
2022/02/08 03:37:41;;;;;;;38.03;16.45;;;;;;;2.92;100.00;98863.81;4951897;28;20049;-54
2022/02/08 03:46:16;;;;;;;36.10;17.15;;;;;;;2.81;100.00;98857.75;4964823;28;20053;-56
2022/02/08 03:49:00;;;;;;;35.63;16.45;;;;;;;3.25;100.00;98909.94;4948213;28;20098;-59
2022/02/08 03:51:54;;;;;;;39.22;17.08;;;;;;;3.17;100.00;98909.97;4951060;28;20123;-57
2022/02/08 03:54:41;;;;;;;42.17;17.80;;;;;;;3.20;100.00;98916.94;4943858;29;20136;-56
2022/02/08 03:57:27;;;;;;;33.92;15.40;;;;;;;2.93;100.00;98869.94;4950177;29;20101;-57
2022/02/08 04:00:17;;;;;;;43.75;19.25;;;;;;;2.93;100.00;98894.34;4941433;28;20569;-58
2022/02/08 04:03:23;;;;;;;40.53;18.52;;;;;;;3.06;100.00;98893.44;4960505;28;20430;-59
2022/02/08 04:06:26;;;;;;;37.00;17.63;;;;;;;2.98;100.00;98883.88;4958308;28;20062;-61
2022/02/08 04:09:29;;;;;;;38.15;17.92;;;;;;;3.23;100.00;98919.53;4951798;28;20416;-58
2022/02/08 04:18:51;;;;;;;36.20;16.33;;;;;;;3.27;100.00;98914.28;4948238;28;20160;-56
2022/02/08 04:41:43;;;;;;;;;;;;;;;3.08;100.00;98951.91;4938300;28;20053;-60
2022/02/08 04:51:11;;;;;;;36.50;17.50;;;;;;;2.79;100.00;98930.19;4940138;29;20176;-67
2022/02/08 04:54:20;;;;;;;44.95;18.52;;;;;;;2.88;100.00;98921.41;4938645;29;20125;-66
2022/02/08 05:00:34;;;;;;;39.15;17.80;;;;;;;2.99;100.00;98957.19;4953247;28;20114;-63
2022/02/08 05:40:40;;;;;;;31.75;14.20;;;;;;;2.94;100.00;99013.03;4959197;28;20098;-70
2022/02/08 05:43:59;;;;;;;40.50;15.52;;;;;;;2.87;100.00;99014.81;4930109;29;20094;-64
2022/02/08 05:47:03;;;;;;;36.72;16.02;;;;;;;2.96;100.00;99021.75;4935225;28;20051;-63
2022/02/08 05:50:25;;;;;;;41.85;16.20;;;;;;;2.90;100.00;99013.94;4932239;29;20604;-65
2022/02/08 05:53:32;;;;;;;39.80;16.10;;;;;;;3.11;100.00;99019.09;4942330;28;20058;-58
2022/02/08 05:56:35;;;;;;;37.88;16.65;;;;;;;3.21;100.00;98994.66;4943336;28;20102;-55
2022/02/08 05:59:39;;;;;;;41.08;17.40;;;;;;;3.49;100.00;99019.88;4953414;28;20090;-58
2022/02/08 06:02:43;;;;;;;34.85;15.77;;;;;;;3.66;100.00;99016.28;4948838;28;20062;-62
2022/02/08 06:05:38;;;;;;;34.42;14.77;;;;;;;3.28;100.00;98988.53;4939202;28;20066;-55
2022/02/08 06:08:23;;;;;;;36.78;15.85;;;;;;;3.49;100.00;99035.59;4938499;28;20139;-55
2022/02/08 06:11:15;;;;;;;25.83;14.18;;;;;;;3.30;100.00;99028.66;4940704;28;20114;-53
2022/02/08 06:14:00;;;;;;;29.50;14.52;;;;;;;3.05;100.00;98998.19;4960271;28;20198;-53
2022/02/08 06:16:46;;;;;;;30.42;14.57;;;;;;;3.19;100.00;99035.66;4967754;28;20097;-53
2022/02/08 06:19:31;;;;;;;31.85;14.43;;;;;;;3.22;100.00;99038.28;4935597;29;20558;-58
2022/02/08 06:22:15;;;;;;;28.85;14.02;;;;;;;3.23;100.00;99034.78;4947921;29;20169;-60
2022/02/08 06:25:00;;;;;;;32.13;14.90;;;;;;;3.26;100.00;99045.25;4939997;29;20054;-60
2022/02/08 06:27:48;;;;;;;30.80;14.27;;;;;;;3.23;100.00;99058.34;4943072;28;20477;-58
2022/02/08 06:30:32;;;;;;;30.45;14.65;;;;;;;3.09;100.00;99047.06;4951375;28;20132;-59
2022/02/08 06:33:18;;;;;;;25.02;12.30;;;;;;;3.14;100.00;99051.41;4958514;28;20174;-60
2022/02/08 06:36:03;;;;;;;27.42;14.02;;;;;;;3.01;100.00;99062.75;4944911;29;20102;-63
2022/02/08 06:38:48;;;;;;;;;;;;;;;3.15;100.00;99058.38;4941847;28;20122;-55
2022/02/08 06:41:33;;;;;;;25.67;12.73;;;;;;;2.97;100.00;99065.41;4950025;28;19937;-60
2022/02/08 06:44:18;;;;;;;25.38;12.30;;;;;;;2.95;100.00;99061.91;4950876;28;20058;-64
2022/02/08 06:47:03;;;;;;;23.73;12.07;;;;;;;2.96;100.00;99054.06;4939182;28;20167;-67
2022/02/08 06:49:48;;;;;;;26.15;12.63;;;;;;;3.05;100.00;99072.34;4933233;28;20078;-62
2022/02/08 06:52:33;;;;;;;22.80;11.80;;;;;;;2.83;100.00;99067.16;4939677;28;20423;-61
2022/02/08 06:55:19;;;;;;;25.48;11.88;;;;;;;2.96;100.00;99072.38;4930488;29;20139;-61
2022/02/08 06:58:06;;;;;;;23.02;12.07;;;;;;;2.94;100.00;99070.63;4913707;28;20115;-69
2022/02/08 07:00:58;;;;;;;27.20;13.00;;;;;;;2.97;100.00;99071.50;4952134;28;20463;-64
2022/02/08 07:03:46;;;;;;;27.52;12.93;;;;;;;2.95;100.00;99069.75;4941886;28;20582;-61
2022/02/08 07:06:31;;;;;;;27.23;12.18;;;;;;;2.86;100.00;99062.81;4931696;29;20074;-71
2022/02/08 07:09:16;;;;;;;25.10;12.27;;;;;;;3.01;100.00;99083.72;4940418;29;20915;-64
2022/02/08 07:12:01;;;;;;;25.17;12.55;;;;;;;2.94;100.00;99082.00;4932947;28;20119;-61
2022/02/08 07:14:46;;;;;;;;;;;;;;;3.03;100.00;99076.75;4936265;29;20164;-64
2022/02/08 07:17:31;;;;;;;24.45;11.23;;;;;;;2.94;100.00;99070.63;4930480;28;19952;-65
2022/02/08 07:20:17;;;;;;;22.92;10.15;;;;;;;3.07;100.00;99073.25;4931161;28;20053;-61
2022/02/08 07:23:02;;;;;;;23.52;10.80;;;;;;;3.05;100.00;99072.34;4934849;29;20121;-62
2022/02/08 07:25:47;;;;;;;25.42;10.93;;;;;;;3.02;100.00;99076.75;4897748;29;20480;-62
2022/02/08 07:28:41;;;;;;;22.10;10.48;;;;;;;3.07;100.00;99062.78;4900894;29;20098;-60
2022/02/08 07:31:35;;;;;;;26.70;11.45;;;;;;;3.24;100.00;99087.16;4930195;29;20062;-63
2022/02/08 07:37:15;;;;;;;24.33;10.10;;;;;;;3.41;100.00;99100.25;4937381;29;20070;-60
2022/02/08 07:40:05;;;;;;;23.35;11.07;;;;;;;3.31;100.00;99088.03;4925539;29;20122;-64
2022/02/08 07:42:49;;;;;;;17.35;9.45;;;;;;;3.25;100.00;99096.75;4913319;29;20050;-59
2022/02/08 07:45:34;;;;;;;23.65;10.85;;;;;;;3.30;100.00;99096.75;4943124;28;20058;-62
2022/02/08 07:48:19;;;;;;;22.17;10.65;;;;;;;3.49;100.00;99095.84;4930264;28;20090;-60
2022/02/08 07:51:03;;;;;;;24.40;10.18;;;;;;;3.55;100.00;99086.22;4946169;29;20058;-64
2022/02/08 07:53:48;;;;;;;20.83;10.75;;;;;;;3.61;100.00;99099.28;4927061;29;20054;-64
2022/02/08 07:56:32;;;;;;;21.77;10.20;;;;;;;3.58;100.00;99088.84;4935113;28;20050;-59
2022/02/08 07:59:17;;;;;;;;;;;;;;;3.79;100.00;99088.75;4945077;28;20058;-61
2022/02/08 08:02:02;;;;;;;20.77;10.57;;;;;;;3.67;100.00;99087.91;4938959;29;19937;-61
2022/02/08 08:04:47;;;;;;;21.17;9.93;;;;;;;3.55;100.00;99096.69;4941551;29;20054;-62
2022/02/08 08:07:31;;;;;;;21.42;9.25;;;;;;;3.43;100.00;99059.16;4933556;29;20123;-62
2022/02/08 08:10:18;;;;;;;20.00;9.57;;;;;;;3.35;100.00;99058.31;4932250;28;20463;-63
2022/02/08 08:13:06;;;;;;;22.20;9.50;;;;;;;3.59;100.00;99094.94;4951907;28;20121;-65
2022/02/08 08:15:57;;;;;;;20.25;9.40;;;;;;;3.62;100.00;99087.06;4931535;29;20178;-63
2022/02/08 08:18:58;;;;;;;17.60;9.27;;;;;;;3.76;100.00;99095.75;4942358;28;20176;-62
2022/02/08 08:21:42;;;;;;;21.33;10.43;;;;;;;3.32;100.00;99024.31;4931459;29;20050;-68
2022/02/08 08:24:27;;;;;;;18.67;8.55;;;;;;;3.89;100.00;99086.97;4911724;29;20062;-62
2022/02/08 08:27:15;;;;;;;17.88;8.02;;;;;;;3.87;100.00;99088.69;4945927;28;20105;-61
2022/02/08 08:30:00;;;;;;;11.63;5.93;;;;;;;3.99;100.00;99055.44;4916214;29;20132;-62
2022/02/08 08:32:44;;;;;;;11.82;4.32;;;;;;;3.85;100.00;99053.78;4922144;28;20387;-62
2022/02/08 08:35:29;;;;;;;9.55;5.13;;;;;;;3.90;100.00;99055.50;4952448;28;20126;-60
2022/02/08 08:38:17;;;;;;;7.30;4.05;;;;;;;3.84;100.00;99073.84;4943306;28;20168;-61
2022/02/08 08:50:03;;;;;;;9.02;4.78;;;;;;;4.52;100.00;99092.69;4950061;28;20050;-63
2022/02/08 08:52:51;;;;;;;7.85;3.83;;;;;;;4.48;100.00;99093.59;4921586;29;20066;-63
2022/02/08 08:55:35;;;;;;;8.07;4.10;;;;;;;3.93;100.00;99046.75;4944044;29;20050;-62
2022/02/08 08:58:19;;;;;;;9.18;4.40;;;;;;;4.19;100.00;99094.66;4936066;29;20198;-62
2022/02/08 09:01:04;;;;;;;7.15;4.30;;;;;;;4.05;100.00;99097.38;4949491;28;20062;-60
2022/02/08 09:03:49;;;;;;;6.22;4.05;;;;;;;3.90;100.00;99089.59;4939591;28;20114;-62
2022/02/08 09:06:52;;;;;;;5.95;3.90;;;;;;;3.89;100.00;99094.81;4938022;29;20720;-61
2022/02/08 09:09:40;;;;;;;7.70;3.95;;;;;;;3.73;100.00;99054.69;4936394;28;20061;-63
2022/02/08 09:12:27;;;;;;;8.05;3.63;;;;;;;3.73;100.00;99073.03;4941924;28;20070;-61
2022/02/08 09:24:11;;;;;;;5.28;3.30;;;;;;;4.33;100.00;99075.34;4935744;29;20058;-61
2022/02/08 09:30:00;;;;;;;7.18;2.83;;;;;;;4.41;100.00;99078.81;4921205;29;19973;-61
2022/02/08 09:32:50;;;;;;;5.43;3.22;;;;;;;4.00;100.00;99001.25;4949413;28;20077;-61
2022/02/08 09:35:36;;;;;;;6.22;3.20;;;;;;;4.59;100.00;99077.81;4923748;29;20416;-62
2022/02/08 09:38:20;;;;;;;6.32;3.47;;;;;;;4.46;100.00;99052.50;4930796;29;20134;-65
2022/02/08 09:41:07;;;;;;;6.53;3.80;;;;;;;4.49;100.00;99078.72;4924788;29;20062;-58
2022/02/08 09:43:52;;;;;;;5.40;3.47;;;;;;;4.45;100.00;99075.28;4945424;28;20094;-63
2022/02/08 09:46:38;;;;;;;8.07;4.28;;;;;;;4.72;100.00;99076.81;4929382;29;20102;-60
2022/02/08 09:49:22;;;;;;;7.55;4.10;;;;;;;4.29;100.00;99012.41;4942247;28;20149;-65
2022/02/08 09:52:07;;;;;;;8.35;4.22;;;;;;;4.63;100.00;99079.53;4936205;29;20062;-62
2022/02/08 09:54:52;;;;;;;7.20;3.83;;;;;;;4.87;100.00;99074.06;4921336;29;20575;-61
2022/02/08 09:57:38;;;;;;;7.10;3.70;;;;;;;4.69;100.00;99063.69;4940343;28;20089;-61
2022/02/08 10:00:24;;;;;;;8.50;3.38;;;;;;;4.61;100.00;99029.66;4921428;29;20054;-63
2022/02/08 10:03:18;;;;;;;8.07;3.08;;;;;;;4.74;100.00;99059.28;4946088;28;20396;-62
2022/02/08 10:06:03;;;;;;;8.10;2.53;;;;;;;4.16;100.00;99031.75;4913682;29;20503;-56
2022/02/08 10:09:17;;;;;;;6.73;2.60;;;;;;;4.26;100.00;99065.78;4947318;29;20102;-63
2022/02/08 10:12:02;;;;;;;2.67;1.85;;;;;;;4.15;100.00;99058.81;4904691;29;20324;-57
2022/02/08 10:24:09;;;;;;;5.65;3.22;;;;;;;4.03;100.00;99059.78;4918625;29;20577;-55
2022/02/08 10:27:02;;;;;;;6.32;3.20;;;;;;;4.09;100.00;99051.00;4916950;29;20087;-59
2022/02/08 10:38:54;;;;;;;9.77;4.20;;;;;;;4.18;100.00;99064.06;4901513;29;20051;-58
2022/02/08 10:41:38;;;;;;;9.65;3.90;;;;;;;4.16;100.00;99045.72;4914863;29;20488;-56
2022/02/08 10:44:23;;;;;;;12.85;4.40;;;;;;;4.30;100.00;99057.00;4914669;29;20534;-59
2022/02/08 10:47:07;;;;;;;7.32;4.60;;;;;;;4.23;100.00;99042.16;4919990;28;20090;-64
2022/02/08 10:49:52;;;;;;;12.10;4.72;;;;;;;4.24;100.00;99054.41;4946198;28;20052;-60
2022/02/08 10:52:41;;;;;;;7.55;3.63;;;;;;;4.11;100.00;99058.00;4971897;28;20057;-57
2022/02/08 11:04:32;;;;;;;5.35;2.92;;;;;;;3.83;100.00;99058.13;4976953;28;20097;-57
2022/02/08 11:07:42;;;;;;;7.10;3.47;;;;;;;3.89;100.00;99050.25;4975212;28;20542;-55
2022/02/08 11:10:32;;;;;;;5.60;3.42;;;;;;;3.89;100.00;99052.88;4952502;28;20085;-60
2022/02/08 11:16:26;;;;;;;7.43;3.47;;;;;;;3.98;100.00;99047.56;4946736;28;20139;-54
2022/02/08 11:19:27;;;;;;;7.45;3.67;;;;;;;4.04;100.00;99050.19;4915630;28;20391;-60
2022/02/08 11:22:46;;;;;;;6.72;3.03;;;;;;;4.03;100.00;99059.78;4950042;28;20058;-61
2022/02/08 11:25:30;;;;;;;5.15;2.67;;;;;;;3.74;100.00;99034.59;4955640;28;20045;-61
2022/02/08 11:28:32;;;;;;;4.93;2.50;;;;;;;3.91;100.00;99053.72;4939925;28;20223;-58
2022/02/08 11:31:27;;;;;;;6.40;3.47;;;;;;;3.56;100.00;99022.44;4940620;28;20317;-58
2022/02/08 11:41:41;;;;;;;7.25;2.55;;;;;;;3.84;100.00;99058.13;4952064;28;20554;-56
2022/02/08 11:55:15;;;;;;;4.78;2.22;;;;;;;4.04;100.00;99060.66;4952207;28;20053;-57
2022/02/08 12:01:03;;;;;;;5.53;2.45;;;;;;;3.70;100.00;99019.75;4952996;28;20058;-57
2022/02/08 12:07:04;;;;;;;7.68;2.53;;;;;;;3.74;100.00;99050.31;4951417;28;20083;-54
2022/02/08 12:58:15;;;;;;;4.32;1.65;;;;;;;4.01;100.00;99081.66;4917227;29;20569;-57
2022/02/08 13:01:52;;;;;;;3.78;1.52;;;;;;;4.04;100.00;99095.63;4917388;29;20151;-56
2022/02/08 14:01:47;;;;;;;3.65;1.02;;;;;;;3.47;100.00;99082.75;4928413;28;20537;-56
2022/02/08 14:07:44;;;;;;;2.90;1.33;;;;;;;3.48;100.00;99108.06;4942226;28;20061;-60
2022/02/08 14:11:11;;;;;;;2.53;1.45;;;;;;;3.64;100.00;99103.69;4946418;28;20102;-56
2022/02/08 14:31:34;;;;;;;2.38;1.30;;;;;;;3.38;100.00;99100.25;4947989;28;20065;-55
2022/02/08 15:08:29;;;;;;;2.97;1.20;;;;;;;3.13;100.00;99107.25;4853974;29;20106;-59
2022/02/08 15:11:14;;;;;;;4.03;1.35;;;;;;;3.21;100.00;99118.59;4854935;29;20062;-60
2022/02/08 15:14:00;;;;;;;3.47;1.20;;;;;;;3.28;100.00;99104.63;4913314;29;20058;-59
2022/02/08 15:16:49;;;;;;;3.83;1.40;;;;;;;3.36;100.00;99110.72;4912447;29;20050;-56
2022/02/08 15:19:37;;;;;;;2.30;1.40;;;;;;;3.34;100.00;99120.34;4912416;29;20054;-60
2022/02/08 15:22:21;;;;;;;4.55;1.55;;;;;;;3.36;100.00;99110.72;4913075;29;20110;-58
2022/02/08 15:25:12;;;;;;;2.25;1.27;;;;;;;3.41;100.00;99103.72;4923408;29;20147;-62
2022/02/08 15:28:04;;;;;;;3.13;1.48;;;;;;;3.15;100.00;99075.84;4899210;29;20064;-58
2022/02/08 15:30:49;;;;;;;7.95;2.05;;;;;;;3.26;100.00;99105.50;4906389;29;20210;-60
2022/02/08 15:33:34;;;;;;;6.05;1.42;;;;;;;3.30;100.00;99110.75;4929121;29;20055;-58
2022/02/08 15:36:19;;;;;;;3.70;1.55;;;;;;;3.17;100.00;99109.00;4925078;29;20247;-58
2022/02/08 15:39:08;;;;;;;4.25;1.73;;;;;;;3.10;100.00;99067.13;4943563;28;20538;-62
2022/02/08 15:41:53;;;;;;;4.55;2.03;;;;;;;3.33;100.00;99107.25;4915032;29;20589;-66
2022/02/08 15:44:44;;;;;;;;;;;;;;;3.21;100.00;99115.97;4953373;28;20539;-65
2022/02/08 15:47:28;;;;;;;5.18;1.50;;;;;;;3.01;100.00;99103.81;4946288;28;19974;-63
2022/02/08 15:50:24;;;;;;;7.60;1.30;;;;;;;2.93;100.00;99124.72;4937745;29;20468;-56
2022/02/08 15:56:39;;;;;;;5.28;1.58;;;;;;;2.84;100.00;99087.22;4911705;29;20369;-58
2022/02/08 16:06:26;;;;;;;3.70;1.40;;;;;;;3.14;100.00;99121.25;4872565;29;20164;-58
2022/02/08 16:18:36;;;;;;;2.65;1.30;;;;;;;3.36;100.00;99104.63;4872710;29;20414;-63
2022/02/08 16:26:42;;;;;;;5.57;2.75;;;;;;;3.30;100.00;99136.06;4874122;29;20056;-57
2022/02/08 16:50:55;;;;;;;5.07;3.15;;;;;;;3.36;100.00;99134.31;4969540;28;20105;-55
2022/02/08 16:53:23;;;;;;;4.80;3.30;;;;;;;3.57;100.00;99134.25;4968893;28;20057;-62
2022/02/08 16:56:15;;;;;;;7.07;3.45;;;;;;;3.72;100.00;99138.59;4964717;28;20510;-58
2022/02/08 16:58:59;;;;;;;6.85;3.47;;;;;;;3.54;100.00;99134.28;4968837;28;20058;-59
2022/02/08 17:01:44;;;;;;;6.85;3.22;;;;;;;3.43;100.00;99124.69;4969728;28;20597;-63
2022/02/08 17:04:28;;;;;;;5.55;2.95;;;;;;;2.94;100.00;99092.47;4954571;28;20057;-60
2022/02/08 17:07:13;;;;;;;5.20;3.47;;;;;;;3.14;100.00;99127.38;4947360;29;20070;-62
2022/02/08 17:10:02;;;;;;;5.95;3.90;;;;;;;2.68;100.00;99101.16;4945330;28;20498;-58
2022/02/08 17:12:57;;;;;;;4.90;3.60;;;;;;;2.87;100.00;99132.59;4924222;29;20049;-55
2022/02/08 17:19:00;;;;;;;4.22;3.10;;;;;;;3.19;100.00;99125.59;4948652;29;20054;-62
2022/02/08 17:45:10;;;;;;;5.90;3.58;;;;;;;2.80;100.00;99117.75;4959746;28;20154;-56
2022/02/08 17:46:36;;;;;;;4.80;2.90;;;;;;;2.49;100.00;99113.38;4938719;28;20085;-59
2022/02/08 17:49:21;;;;;;;4.22;2.70;;;;;;;2.44;100.00;99109.88;4929483;29;20098;-66
2022/02/08 17:52:06;;;;;;;5.57;2.70;;;;;;;2.61;100.00;99121.22;4930451;28;20093;-65
2022/02/08 17:54:51;;;;;;;3.92;2.22;;;;;;;2.65;100.00;99120.38;4944155;28;20117;-60
2022/02/08 17:57:36;;;;;;;5.68;2.33;;;;;;;2.45;100.00;99110.78;4969390;28;20462;-55
2022/02/08 18:00:20;;;;;;;3.15;1.77;;;;;;;2.60;100.00;99110.75;4969086;28;20182;-58
2022/02/08 18:03:06;;;;;;;2.83;1.95;;;;;;;2.22;100.00;99034.88;4968720;28;20149;-64
2022/02/08 18:05:52;;;;;;;3.80;2.08;;;;;;;2.29;100.00;99067.16;4953986;28;20101;-61
2022/02/08 18:08:38;;;;;;;3.78;2.25;;;;;;;2.55;100.00;99105.53;4962359;28;21125;-63
2022/02/08 18:11:28;;;;;;;3.83;2.10;;;;;;;2.62;100.00;99106.41;4950325;28;20062;-56
2022/02/08 18:14:18;;;;;;;5.20;2.88;;;;;;;2.16;100.00;99104.59;4933864;29;20530;-56
2022/02/08 18:17:09;;;;;;;4.10;2.53;;;;;;;2.17;100.00;99106.34;4948372;29;20062;-57
2022/02/08 18:20:06;;;;;;;3.45;2.15;;;;;;;2.26;100.00;99101.13;4948092;29;20066;-70
2022/02/08 18:23:15;;;;;;;5.10;2.80;;;;;;;2.39;100.00;99110.75;4936233;29;20475;-62
2022/02/08 18:55:32;;;;;;;3.72;2.22;;;;;;;2.50;100.00;99091.56;4889704;29;20101;-60
2022/02/08 19:17:16;;;;;;;7.28;2.75;;;;;;;2.15;100.00;99074.97;4939281;28;20062;-69
2022/02/08 19:20:26;;;;;;;4.55;3.05;;;;;;;2.15;100.00;99095.00;4916076;29;20082;-61
2022/02/08 19:23:09;;;;;;;5.35;3.05;;;;;;;2.05;100.00;99096.72;4928992;29;20319;-59
2022/02/08 19:25:53;;;;;;;5.25;3.13;;;;;;;1.83;100.00;99060.06;4952000;28;20125;-55
2022/02/08 19:28:38;;;;;;;6.47;3.17;;;;;;;1.74;100.00;99068.72;4967018;28;20057;-56
2022/02/08 19:31:22;;;;;;;8.43;3.28;;;;;;;1.92;100.00;99099.28;4916090;29;20137;-58
2022/02/08 19:34:07;;;;;;;6.55;3.05;;;;;;;2.13;100.00;99096.75;4914960;29;20146;-64
2022/02/08 19:36:56;;;;;;;8.27;3.97;;;;;;;2.21;100.00;99097.66;4929383;29;20063;-57
2022/02/08 19:39:42;;;;;;;6.68;3.70;;;;;;;2.19;100.00;99087.19;4915844;28;20504;-58
2022/02/08 19:42:26;;;;;;;6.40;3.95;;;;;;;1.62;100.00;99023.44;4967777;28;20553;-57
2022/02/08 19:45:16;;;;;;;8.55;4.35;;;;;;;2.16;100.00;99096.75;4966747;28;20390;-67
2022/02/08 19:48:00;;;;;;;11.20;4.40;;;;;;;2.21;100.00;99102.88;4939151;28;20141;-69
2022/02/08 19:50:46;;;;;;;8.60;4.57;;;;;;;2.11;100.00;99093.25;4967865;28;20529;-62
2022/02/08 19:53:33;;;;;;;8.48;4.68;;;;;;;2.11;100.00;99101.09;4947773;28;20065;-63
2022/02/08 19:56:37;;;;;;;10.57;5.47;;;;;;;2.05;100.00;99080.19;4932538;29;20057;-56
2022/02/08 19:59:34;;;;;;;13.60;6.05;;;;;;;2.31;100.00;99102.00;4945994;29;20046;-61
2022/02/08 20:02:23;;;;;;;17.92;7.20;;;;;;;2.21;100.00;99089.81;4931861;29;20130;-57
2022/02/08 20:05:11;;;;;;;13.70;6.43;;;;;;;2.38;100.00;99096.78;4931595;29;20069;-62
2022/02/08 20:07:58;;;;;;;13.45;6.63;;;;;;;2.39;100.00;99100.28;4931324;29;20090;-55
2022/02/08 20:10:43;;;;;;;11.30;6.38;;;;;;;2.41;100.00;99102.03;4935777;28;20586;-54
2022/02/08 20:13:29;;;;;;;12.52;6.10;;;;;;;2.34;100.00;99102.03;4941751;28;20132;-57
2022/02/08 20:16:13;;;;;;;12.50;5.90;;;;;;;2.42;100.00;99095.91;4949858;29;20070;-60
2022/02/08 20:19:01;;;;;;;11.60;5.63;;;;;;;2.61;100.00;99095.06;4947834;29;20054;-59
2022/02/08 20:21:48;;;;;;;13.07;6.60;;;;;;;2.80;100.00;99091.59;4942373;28;20122;-55
2022/02/08 20:24:33;;;;;;;13.20;6.07;;;;;;;2.91;100.00;99076.75;4925389;28;20514;-59
2022/02/08 20:27:47;;;;;;;15.65;6.93;;;;;;;3.21;100.00;99104.66;4925157;28;20432;-58
2022/02/08 20:30:29;;;;;;;15.13;6.40;;;;;;;3.18;100.00;99096.78;4958818;28;20082;-58
2022/02/08 20:33:14;;;;;;;15.48;6.65;;;;;;;3.27;100.00;99091.53;4936802;28;20073;-59
2022/02/08 20:35:58;;;;;;;15.85;7.60;;;;;;;3.28;100.00;99098.53;4959363;28;20535;-60
2022/02/08 20:38:48;;;;;;;14.35;7.72;;;;;;;3.30;100.00;99075.81;4940903;28;20050;-60
2022/02/08 20:41:33;;;;;;;12.00;6.75;;;;;;;3.49;100.00;99098.47;4940152;28;20094;-66
2022/02/08 20:44:18;;;;;;;8.98;5.20;;;;;;;3.28;100.00;99091.53;4958308;28;20542;-60
2022/02/08 20:47:19;;;;;;;9.70;5.05;;;;;;;3.09;100.00;99091.56;4943793;28;20106;-57